Date,TemperatureHighF,TemperatureAvgF,TemperatureLowF,DewpointHighF,DewpointAvgF,DewpointLowF,HumidityHigh,HumidityAvg,HumidityLow,PressureMaxIn,PressureMinIn,WindSpeedMaxMPH,WindSpeedAvgMPH,GustSpeedMaxMPH,PrecipitationSumIn
2013-4-1,44,37,28,42,30,18,94,77,49,29.91,29.55,13,5,0,0.44
2013-4-2,33,27,23,27,22,20,92,83,64,30.01,29.90,12,5,0,0.00
2013-4-9,50,47,46,50,47,45,99,98,97,30.00,29.90,3,1,0,0.74
2013-4-10,50,41,34,49,39,28,98,92,70,30.13,29.85,4,2,0,0.76
2013-4-11,43,37,34,41,36,32,97,94,88,30.07,29.63,10,3,0,0.62
2013-4-12,48,43,40,45,39,36,97,87,74,29.82,29.60,7,3,0,0.03
2013-4-13,45,39,35,34,32,30,93,77,57,30.11,29.98,5,3,0,0.09
2013-4-14,64,42,34,46,32,29,85,68,52,30.21,30.11,8,2,0,0.00
2013-4-15,69,65,56,49,48,45,67,54,47,30.11,30.06,17,9,11,0.00
2013-4-16,63,56,46,58,50,37,96,80,67,30.20,29.92,27,10,0,0.19
2013-4-17,56,46,35,39,35,32,92,69,44,30.33,30.20,8,1,0,0.19
2013-4-18,69,57,39,56,46,35,86,69,51,30.24,29.78,32,10,0,0.04
2013-4-19,74,60,43,61,52,35,92,77,64,29.77,29.37,25,11,0,0.26
2013-4-20,45,40,32,36,30,23,87,66,51,30.38,29.72,17,6,0,0.28
2013-4-21,45,36,29,29,24,20,87,62,41,30.66,30.39,9,1,0,0.00
2013-4-22,58,46,30,32,28,24,80,51,28,30.62,30.38,17,4,0,0.00
2013-4-23,61,50,38,42,33,24,74,53,36,30.38,30.00,17,6,0,0.00
2013-4-24,68,55,42,55,46,36,88,72,58,30.00,29.60,22,7,0,0.10
2013-4-25,56,46,38,37,32,28,85,60,36,30.29,29.94,11,4,0,0.01
2013-4-26,54,45,35,40,35,31,95,72,45,30.45,30.30,10,1,0,0.11
2013-4-27,66,50,33,41,36,30,92,61,33,30.44,30.23,5,0,0,0.00
2013-4-28,73,60,47,46,40,37,80,49,28,30.23,30.01,22,5,0,0.05
2013-4-29,61,56,51,52,48,41,90,75,62,30.09,30.01,17,7,0,0.17
2013-4-30,67,61,55,54,52,50,84,72,61,30.21,30.07,14,6,0,0.00